Terminal Aerodrome Forecast
Issued by NWS

Home | Current Version | Previous Version | Text Only | Print | Product List | Glossary On
Versions: 1 2 3 4 5 6 7 8 9 10 11 12 13 14 15 16 17 18
000
FTUS43 KLSX 262300
TAFUIN
TAF
KUIN 262326Z 2700/2724 07007KT 4SM BR OVC007
      TEMPO 2700/2702 2SM -FZDZSN BR OVC005
     FM270200 35010KT 5SM -SN BR OVC007
     FM270900 32011KT 6SM BR OVC015
     FM271600 32012KT P6SM SCT015 BKN250=

USA.gov is the U.S. government's official web portal to all federal, state and local government web resources and services.